sensor_id;sensor_type;location;lat;lon;timestamp;pressure;altitude;pressure_sealevel;temperature;humidity
34482;BME280;20720;48.886;9.388;2023-05-20T00:00:20;98509.53;;;15.21;100.00
34482;BME280;20720;48.886;9.388;2023-05-20T00:02:45;98516.41;;;15.10;100.00
34482;BME280;20720;48.886;9.388;2023-05-20T00:05:10;98518.75;;;14.82;100.00
34482;BME280;20720;48.886;9.388;2023-05-20T00:07:35;98509.47;;;15.09;100.00
34482;BME280;20720;48.886;9.388;2023-05-20T00:10:01;98511.53;;;15.37;100.00
34482;BME280;20720;48.886;9.388;2023-05-20T00:12:26;98512.47;;;15.13;100.00
34482;BME280;20720;48.886;9.388;2023-05-20T00:14:51;98500.59;;;15.33;100.00
34482;BME280;20720;48.886;9.388;2023-05-20T00:17:16;98512.00;;;15.34;100.00
34482;BME280;20720;48.886;9.388;2023-05-20T00:19:42;98505.09;;;15.33;100.00
34482;BME280;20720;48.886;9.388;2023-05-20T00:22:07;98502.13;;;15.11;100.00
34482;BME280;20720;48.886;9.388;2023-05-20T00:24:32;98504.50;;;15.31;100.00
34482;BME280;20720;48.886;9.388;2023-05-20T00:26:57;98498.63;;;15.29;100.00
34482;BME280;20720;48.886;9.388;2023-05-20T00:29:23;98499.88;;;15.26;100.00
34482;BME280;20720;48.886;9.388;2023-05-20T00:31:48;98497.31;;;14.72;100.00
34482;BME280;20720;48.886;9.388;2023-05-20T00:34:13;98500.53;;;15.10;100.00
34482;BME280;20720;48.886;9.388;2023-05-20T00:36:38;98495.28;;;15.03;100.00
34482;BME280;20720;48.886;9.388;2023-05-20T00:39:04;98488.31;;;15.09;100.00
34482;BME280;20720;48.886;9.388;2023-05-20T00:41:29;98487.88;;;15.24;100.00
34482;BME280;20720;48.886;9.388;2023-05-20T00:43:55;98492.06;;;15.49;100.00
34482;BME280;20720;48.886;9.388;2023-05-20T00:46:25;98490.16;;;15.38;100.00
34482;BME280;20720;48.886;9.388;2023-05-20T00:48:51;98494.13;;;15.47;100.00
34482;BME280;20720;48.886;9.388;2023-05-20T00:51:17;98487.22;;;15.58;100.00
34482;BME280;20720;48.886;9.388;2023-05-20T00:53:46;98495.28;;;15.51;100.00
34482;BME280;20720;48.886;9.388;2023-05-20T00:56:11;98474.88;;;14.92;100.00
34482;BME280;20720;48.886;9.388;2023-05-20T00:58:37;98476.59;;;15.46;100.00
34482;BME280;20720;48.886;9.388;2023-05-20T01:01:03;98478.97;;;15.77;100.00
34482;BME280;20720;48.886;9.388;2023-05-20T01:03:29;98476.44;;;15.82;100.00
34482;BME280;20720;48.886;9.388;2023-05-20T01:05:54;98481.63;;;15.77;100.00
34482;BME280;20720;48.886;9.388;2023-05-20T01:08:21;98489.47;;;15.72;100.00
34482;BME280;20720;48.886;9.388;2023-05-20T01:10:51;98477.94;;;15.90;100.00
34482;BME280;20720;48.886;9.388;2023-05-20T01:13:20;98473.09;;;15.75;100.00
34482;BME280;20720;48.886;9.388;2023-05-20T01:15:46;98477.94;;;15.78;100.00
34482;BME280;20720;48.886;9.388;2023-05-20T01:18:13;98478.28;;;15.93;100.00
34482;BME280;20720;48.886;9.388;2023-05-20T01:20:42;98466.69;;;16.18;100.00
34482;BME280;20720;48.886;9.388;2023-05-20T01:23:09;98472.09;;;16.11;100.00
34482;BME280;20720;48.886;9.388;2023-05-20T01:25:35;98470.34;;;15.93;100.00
34482;BME280;20720;48.886;9.388;2023-05-20T01:28:00;98464.63;;;15.44;100.00
34482;BME280;20720;48.886;9.388;2023-05-20T01:30:29;98457.31;;;15.57;100.00
34482;BME280;20720;48.886;9.388;2023-05-20T01:33:01;98465.75;;;15.77;100.00
34482;BME280;20720;48.886;9.388;2023-05-20T01:35:27;98455.59;;;15.97;100.00
34482;BME280;20720;48.886;9.388;2023-05-20T01:37:54;98452.38;;;16.07;100.00
34482;BME280;20720;48.886;9.388;2023-05-20T01:40:21;98455.59;;;15.86;100.00
34482;BME280;20720;48.886;9.388;2023-05-20T01:42:47;98455.84;;;15.84;100.00
34482;BME280;20720;48.886;9.388;2023-05-20T01:45:17;98451.91;;;15.75;100.00
34482;BME280;20720;48.886;9.388;2023-05-20T01:47:44;98458.84;;;15.76;100.00
34482;BME280;20720;48.886;9.388;2023-05-20T01:50:10;98456.97;;;15.36;100.00
34482;BME280;20720;48.886;9.388;2023-05-20T01:52:35;98451.34;;;15.73;100.00
34482;BME280;20720;48.886;9.388;2023-05-20T01:55:00;98453.06;;;15.79;100.00
34482;BME280;20720;48.886;9.388;2023-05-20T01:57:26;98454.22;;;15.83;100.00
34482;BME280;20720;48.886;9.388;2023-05-20T01:59:51;98456.75;;;15.78;100.00
34482;BME280;20720;48.886;9.388;2023-05-20T02:02:16;98458.47;;;15.73;100.00
34482;BME280;20720;48.886;9.388;2023-05-20T02:04:43;98455.16;;;15.77;100.00
34482;BME280;20720;48.886;9.388;2023-05-20T02:07:12;98453.31;;;15.78;100.00
34482;BME280;20720;48.886;9.388;2023-05-20T02:09:37;98452.59;;;15.71;100.00
34482;BME280;20720;48.886;9.388;2023-05-20T02:12:03;98453.34;;;15.48;100.00
34482;BME280;20720;48.886;9.388;2023-05-20T02:14:28;98449.94;;;15.59;100.00
34482;BME280;20720;48.886;9.388;2023-05-20T02:16:53;98437.03;;;15.51;100.00
34482;BME280;20720;48.886;9.388;2023-05-20T02:19:19;98442.78;;;15.60;100.00
34482;BME280;20720;48.886;9.388;2023-05-20T02:21:48;98438.69;;;15.34;100.00
34482;BME280;20720;48.886;9.388;2023-05-20T02:24:13;98442.19;;;15.46;100.00
34482;BME280;20720;48.886;9.388;2023-05-20T02:26:39;98439.53;;;15.46;100.00
34482;BME280;20720;48.886;9.388;2023-05-20T02:29:04;98440.97;;;15.83;100.00
34482;BME280;20720;48.886;9.388;2023-05-20T02:31:29;98442.84;;;16.06;100.00
34482;BME280;20720;48.886;9.388;2023-05-20T02:33:55;98442.59;;;16.08;100.00
34482;BME280;20720;48.886;9.388;2023-05-20T02:36:20;98444.22;;;16.09;100.00
34482;BME280;20720;48.886;9.388;2023-05-20T02:38:45;98444.31;;;16.14;100.00
34482;BME280;20720;48.886;9.388;2023-05-20T02:41:10;98439.72;;;15.97;100.00
34482;BME280;20720;48.886;9.388;2023-05-20T02:43:36;98446.16;;;16.01;100.00
34482;BME280;20720;48.886;9.388;2023-05-20T02:46:02;98443.66;;;16.07;100.00
34482;BME280;20720;48.886;9.388;2023-05-20T02:48:27;98447.31;;;15.82;100.00
34482;BME280;20720;48.886;9.388;2023-05-20T02:50:52;98440.41;;;15.81;100.00
34482;BME280;20720;48.886;9.388;2023-05-20T02:53:17;98448.72;;;15.96;100.00
34482;BME280;20720;48.886;9.388;2023-05-20T02:55:45;98445.25;;;16.08;100.00
34482;BME280;20720;48.886;9.388;2023-05-20T02:58:11;98448.38;;;16.05;100.00
34482;BME280;20720;48.886;9.388;2023-05-20T03:00:37;98448.81;;;16.13;100.00
34482;BME280;20720;48.886;9.388;2023-05-20T03:03:05;98442.50;;;16.02;100.00
34482;BME280;20720;48.886;9.388;2023-05-20T03:05:31;98446.88;;;15.85;100.00
34482;BME280;20720;48.886;9.388;2023-05-20T03:07:57;98442.72;;;15.89;100.00
34482;BME280;20720;48.886;9.388;2023-05-20T03:10:22;98447.22;;;15.89;100.00
34482;BME280;20720;48.886;9.388;2023-05-20T03:12:47;98451.09;;;15.75;100.00
34482;BME280;20720;48.886;9.388;2023-05-20T03:15:13;98455.16;;;15.89;100.00
34482;BME280;20720;48.886;9.388;2023-05-20T03:17:38;98446.63;;;15.75;100.00
34482;BME280;20720;48.886;9.388;2023-05-20T03:20:04;98451.34;;;15.32;100.00
34482;BME280;20720;48.886;9.388;2023-05-20T03:22:31;98446.22;;;15.49;100.00
34482;BME280;20720;48.886;9.388;2023-05-20T03:24:56;98436.91;;;15.58;100.00
34482;BME280;20720;48.886;9.388;2023-05-20T03:27:21;98444.72;;;15.41;100.00
34482;BME280;20720;48.886;9.388;2023-05-20T03:29:46;98439.09;;;15.49;100.00
34482;BME280;20720;48.886;9.388;2023-05-20T03:32:12;98437.50;;;15.60;100.00
34482;BME280;20720;48.886;9.388;2023-05-20T03:34:37;98440.63;;;15.68;100.00
34482;BME280;20720;48.886;9.388;2023-05-20T03:37:02;98435.19;;;15.52;100.00
34482;BME280;20720;48.886;9.388;2023-05-20T03:39:28;98445.09;;;15.68;100.00
34482;BME280;20720;48.886;9.388;2023-05-20T03:41:53;98439.91;;;15.73;100.00
34482;BME280;20720;48.886;9.388;2023-05-20T03:44:18;98440.06;;;15.89;100.00
34482;BME280;20720;48.886;9.388;2023-05-20T03:46:44;98445.00;;;15.74;100.00
34482;BME280;20720;48.886;9.388;2023-05-20T03:49:09;98448.59;;;15.80;100.00
34482;BME280;20720;48.886;9.388;2023-05-20T03:51:34;98454.56;;;15.87;100.00
34482;BME280;20720;48.886;9.388;2023-05-20T03:53:59;98456.31;;;16.05;100.00
34482;BME280;20720;48.886;9.388;2023-05-20T03:56:25;98455.69;;;15.68;100.00
34482;BME280;20720;48.886;9.388;2023-05-20T03:58:50;98459.06;;;15.86;100.00
34482;BME280;20720;48.886;9.388;2023-05-20T04:01:15;98456.75;;;15.78;100.00
34482;BME280;20720;48.886;9.388;2023-05-20T04:03:41;98461.31;;;15.60;100.00
34482;BME280;20720;48.886;9.388;2023-05-20T04:06:06;98453.16;;;15.73;100.00
34482;BME280;20720;48.886;9.388;2023-05-20T04:08:32;98451.47;;;16.25;100.00
34482;BME280;20720;48.886;9.388;2023-05-20T04:10:58;98457.31;;;15.69;100.00
34482;BME280;20720;48.886;9.388;2023-05-20T04:13:24;98455.66;;;15.45;100.00
34482;BME280;20720;48.886;9.388;2023-05-20T04:15:50;98440.34;;;15.47;100.00
34482;BME280;20720;48.886;9.388;2023-05-20T04:18:17;98447.22;;;16.00;100.00
34482;BME280;20720;48.886;9.388;2023-05-20T04:20:42;98449.97;;;16.17;100.00
34482;BME280;20720;48.886;9.388;2023-05-20T04:23:08;98452.84;;;16.39;100.00
34482;BME280;20720;48.886;9.388;2023-05-20T04:25:33;98454.09;;;16.59;100.00
34482;BME280;20720;48.886;9.388;2023-05-20T04:28:00;98456.44;;;16.21;100.00
34482;BME280;20720;48.886;9.388;2023-05-20T04:30:25;98448.00;;;16.36;100.00
34482;BME280;20720;48.886;9.388;2023-05-20T04:32:51;98454.22;;;16.30;100.00
34482;BME280;20720;48.886;9.388;2023-05-20T04:35:16;98442.47;;;16.49;100.00
34482;BME280;20720;48.886;9.388;2023-05-20T04:37:42;98441.63;;;16.60;100.00
34482;BME280;20720;48.886;9.388;2023-05-20T04:40:09;98437.97;;;16.89;100.00
34482;BME280;20720;48.886;9.388;2023-05-20T04:42:34;98435.81;;;17.31;100.00
34482;BME280;20720;48.886;9.388;2023-05-20T04:45:00;98428.66;;;17.59;100.00
34482;BME280;20720;48.886;9.388;2023-05-20T04:47:29;98435.41;;;17.67;100.00
34482;BME280;20720;48.886;9.388;2023-05-20T04:49:55;98435.09;;;17.80;100.00
34482;BME280;20720;48.886;9.388;2023-05-20T04:52:23;98437.03;;;17.84;100.00
34482;BME280;20720;48.886;9.388;2023-05-20T04:54:49;98441.06;;;18.42;100.00
34482;BME280;20720;48.886;9.388;2023-05-20T04:57:15;98439.13;;;19.02;99.90
34482;BME280;20720;48.886;9.388;2023-05-20T04:59:41;98443.34;;;18.55;100.00
34482;BME280;20720;48.886;9.388;2023-05-20T05:02:06;98436.44;;;19.24;97.66
34482;BME280;20720;48.886;9.388;2023-05-20T05:04:31;98435.59;;;19.23;96.40
34482;BME280;20720;48.886;9.388;2023-05-20T05:06:57;98441.81;;;19.55;95.26
34482;BME280;20720;48.886;9.388;2023-05-20T05:09:22;98441.88;;;20.34;90.07
34482;BME280;20720;48.886;9.388;2023-05-20T05:11:47;98451.06;;;20.58;88.20
34482;BME280;20720;48.886;9.388;2023-05-20T05:14:13;98447.69;;;20.21;87.24
34482;BME280;20720;48.886;9.388;2023-05-20T05:16:38;98438.38;;;19.92;90.49
34482;BME280;20720;48.886;9.388;2023-05-20T05:19:03;98439.81;;;21.13;85.74
34482;BME280;20720;48.886;9.388;2023-05-20T05:21:28;98441.75;;;21.73;81.76
34482;BME280;20720;48.886;9.388;2023-05-20T05:23:54;98442.75;;;21.11;84.38
34482;BME280;20720;48.886;9.388;2023-05-20T05:26:19;98437.16;;;20.09;89.16
34482;BME280;20720;48.886;9.388;2023-05-20T05:28:44;98438.19;;;21.02;85.20
34482;BME280;20720;48.886;9.388;2023-05-20T05:31:10;98436.53;;;20.34;86.06
34482;BME280;20720;48.886;9.388;2023-05-20T05:33:35;98426.06;;;20.84;86.74
34482;BME280;20720;48.886;9.388;2023-05-20T05:36:00;98426.91;;;20.28;86.73
34482;BME280;20720;48.886;9.388;2023-05-20T05:38:26;98434.56;;;19.83;91.35
34482;BME280;20720;48.886;9.388;2023-05-20T05:40:52;98421.41;;;20.08;90.26
34482;BME280;20720;48.886;9.388;2023-05-20T05:43:17;98423.88;;;19.78;94.09
34482;BME280;20720;48.886;9.388;2023-05-20T05:45:42;98417.38;;;20.42;87.39
34482;BME280;20720;48.886;9.388;2023-05-20T05:48:08;98420.75;;;20.94;85.93
34482;BME280;20720;48.886;9.388;2023-05-20T05:50:33;98418.97;;;20.48;87.42
34482;BME280;20720;48.886;9.388;2023-05-20T05:52:58;98420.56;;;20.44;90.65
34482;BME280;20720;48.886;9.388;2023-05-20T05:55:23;98429.59;;;19.33;95.65
34482;BME280;20720;48.886;9.388;2023-05-20T05:57:49;98431.09;;;21.88;81.99
34482;BME280;20720;48.886;9.388;2023-05-20T06:00:15;98436.41;;;21.78;80.79
34482;BME280;20720;48.886;9.388;2023-05-20T06:02:40;98424.44;;;19.85;93.20
34482;BME280;20720;48.886;9.388;2023-05-20T06:05:07;98413.94;;;21.43;84.51
34482;BME280;20720;48.886;9.388;2023-05-20T06:07:32;98421.69;;;19.75;95.23
34482;BME280;20720;48.886;9.388;2023-05-20T06:09:57;98416.91;;;19.77;93.33
34482;BME280;20720;48.886;9.388;2023-05-20T06:12:23;98413.28;;;19.03;96.72
34482;BME280;20720;48.886;9.388;2023-05-20T06:14:48;98420.75;;;20.94;85.79
34482;BME280;20720;48.886;9.388;2023-05-20T06:17:13;98410.72;;;21.57;83.21
34482;BME280;20720;48.886;9.388;2023-05-20T06:19:39;98418.53;;;20.66;86.58
34482;BME280;20720;48.886;9.388;2023-05-20T06:22:04;98413.56;;;21.00;84.83
34482;BME280;20720;48.886;9.388;2023-05-20T06:24:29;98414.47;;;22.01;81.61
34482;BME280;20720;48.886;9.388;2023-05-20T06:26:55;98408.31;;;21.90;80.43
34482;BME280;20720;48.886;9.388;2023-05-20T06:29:20;98406.97;;;21.22;85.12
34482;BME280;20720;48.886;9.388;2023-05-20T06:31:46;98399.44;;;20.37;87.42
34482;BME280;20720;48.886;9.388;2023-05-20T06:34:11;98395.69;;;19.55;99.07
34482;BME280;20720;48.886;9.388;2023-05-20T06:36:36;98398.16;;;21.37;87.02
34482;BME280;20720;48.886;9.388;2023-05-20T06:39:02;98394.13;;;21.29;84.55
34482;BME280;20720;48.886;9.388;2023-05-20T06:41:28;98396.03;;;20.47;88.80
34482;BME280;20720;48.886;9.388;2023-05-20T06:43:53;98396.81;;;21.19;85.03
34482;BME280;20720;48.886;9.388;2023-05-20T06:46:18;98386.47;;;19.67;99.90
34482;BME280;20720;48.886;9.388;2023-05-20T06:48:44;98396.25;;;21.22;85.69
34482;BME280;20720;48.886;9.388;2023-05-20T06:51:09;98394.28;;;20.88;89.73
34482;BME280;20720;48.886;9.388;2023-05-20T06:53:35;98391.88;;;20.81;87.38
34482;BME280;20720;48.886;9.388;2023-05-20T06:56:00;98384.88;;;20.65;87.77
34482;BME280;20720;48.886;9.388;2023-05-20T06:58:27;98392.47;;;19.90;93.57
34482;BME280;20720;48.886;9.388;2023-05-20T07:00:52;98384.91;;;19.77;94.44
34482;BME280;20720;48.886;9.388;2023-05-20T07:03:17;98386.44;;;20.56;91.35
34482;BME280;20720;48.886;9.388;2023-05-20T07:05:43;98377.56;;;21.58;84.11
34482;BME280;20720;48.886;9.388;2023-05-20T07:08:09;98383.91;;;20.96;91.21
34482;BME280;20720;48.886;9.388;2023-05-20T07:10:34;98385.84;;;19.97;95.58
34482;BME280;20720;48.886;9.388;2023-05-20T07:12:59;98376.94;;;22.31;81.68
34482;BME280;20720;48.886;9.388;2023-05-20T07:15:25;98377.56;;;21.37;84.66
34482;BME280;20720;48.886;9.388;2023-05-20T07:17:50;98375.41;;;20.32;92.51
34482;BME280;20720;48.886;9.388;2023-05-20T07:20:15;98374.06;;;21.22;88.55
34482;BME280;20720;48.886;9.388;2023-05-20T07:22:41;98365.72;;;20.93;85.62
34482;BME280;20720;48.886;9.388;2023-05-20T07:25:06;98368.13;;;20.18;91.75
34482;BME280;20720;48.886;9.388;2023-05-20T07:27:32;98365.91;;;20.61;90.87
34482;BME280;20720;48.886;9.388;2023-05-20T07:29:57;98363.53;;;20.75;91.52
34482;BME280;20720;48.886;9.388;2023-05-20T07:32:22;98358.75;;;20.82;88.22
34482;BME280;20720;48.886;9.388;2023-05-20T07:34:48;98356.19;;;20.30;90.86
34482;BME280;20720;48.886;9.388;2023-05-20T07:37:13;98357.25;;;21.36;85.22
34482;BME280;20720;48.886;9.388;2023-05-20T07:39:39;98353.97;;;20.94;87.05
34482;BME280;20720;48.886;9.388;2023-05-20T07:42:05;98354.56;;;21.57;84.48
34482;BME280;20720;48.886;9.388;2023-05-20T07:44:30;98363.34;;;21.97;83.52
34482;BME280;20720;48.886;9.388;2023-05-20T07:46:55;98356.97;;;21.48;86.81
34482;BME280;20720;48.886;9.388;2023-05-20T07:49:21;98350.81;;;21.88;84.05
34482;BME280;20720;48.886;9.388;2023-05-20T07:51:46;98351.88;;;21.62;83.67
34482;BME280;20720;48.886;9.388;2023-05-20T07:54:11;98347.22;;;22.22;79.60
34482;BME280;20720;48.886;9.388;2023-05-20T07:56:37;98353.69;;;23.24;75.69
34482;BME280;20720;48.886;9.388;2023-05-20T07:59:02;98342.47;;;24.08;73.72
34482;BME280;20720;48.886;9.388;2023-05-20T08:01:28;98346.53;;;21.62;78.01
34482;BME280;20720;48.886;9.388;2023-05-20T08:03:54;98330.06;;;25.15;71.08
34482;BME280;20720;48.886;9.388;2023-05-20T08:06:20;98333.66;;;23.50;74.54
34482;BME280;20720;48.886;9.388;2023-05-20T08:08:46;98327.53;;;24.86;70.65
34482;BME280;20720;48.886;9.388;2023-05-20T08:11:11;98327.63;;;24.39;71.06
34482;BME280;20720;48.886;9.388;2023-05-20T08:13:37;98329.25;;;22.92;73.59
34482;BME280;20720;48.886;9.388;2023-05-20T08:16:02;98335.81;;;21.72;79.13
34482;BME280;20720;48.886;9.388;2023-05-20T08:18:29;98338.53;;;22.56;75.55
34482;BME280;20720;48.886;9.388;2023-05-20T08:20:54;98333.34;;;24.09;72.30
34482;BME280;20720;48.886;9.388;2023-05-20T08:23:19;98336.34;;;21.89;78.81
34482;BME280;20720;48.886;9.388;2023-05-20T08:25:45;98332.19;;;24.81;70.12
34482;BME280;20720;48.886;9.388;2023-05-20T08:28:13;98342.03;;;22.56;77.13
34482;BME280;20720;48.886;9.388;2023-05-20T08:30:38;98338.59;;;23.28;72.44
34482;BME280;20720;48.886;9.388;2023-05-20T08:33:04;98337.47;;;26.01;65.60
34482;BME280;20720;48.886;9.388;2023-05-20T08:35:29;98339.25;;;25.92;64.91
34482;BME280;20720;48.886;9.388;2023-05-20T08:37:55;98339.75;;;24.13;70.33
34482;BME280;20720;48.886;9.388;2023-05-20T08:40:21;98345.88;;;26.13;65.25
34482;BME280;20720;48.886;9.388;2023-05-20T08:42:48;98335.84;;;25.86;65.18
34482;BME280;20720;48.886;9.388;2023-05-20T08:45:17;98339.22;;;24.95;66.60
34482;BME280;20720;48.886;9.388;2023-05-20T08:47:43;98323.91;;;23.59;72.30
34482;BME280;20720;48.886;9.388;2023-05-20T08:50:10;98337.69;;;23.48;70.02
34482;BME280;20720;48.886;9.388;2023-05-20T08:52:37;98340.22;;;25.18;65.84
34482;BME280;20720;48.886;9.388;2023-05-20T08:55:03;98331.47;;;24.75;65.95
34482;BME280;20720;48.886;9.388;2023-05-20T08:57:32;98337.19;;;22.63;72.48
34482;BME280;20720;48.886;9.388;2023-05-20T08:59:58;98331.13;;;24.58;69.14
34482;BME280;20720;48.886;9.388;2023-05-20T09:02:23;98322.19;;;23.68;69.75
34482;BME280;20720;48.886;9.388;2023-05-20T09:04:48;98326.75;;;23.68;71.73
34482;BME280;20720;48.886;9.388;2023-05-20T09:07:13;98329.72;;;26.13;63.18
34482;BME280;20720;48.886;9.388;2023-05-20T09:09:39;98317.38;;;24.41;66.05
34482;BME280;20720;48.886;9.388;2023-05-20T09:12:05;98319.38;;;27.05;59.71
34482;BME280;20720;48.886;9.388;2023-05-20T09:14:30;98316.66;;;24.12;68.24
34482;BME280;20720;48.886;9.388;2023-05-20T09:16:56;98320.06;;;25.80;63.73
34482;BME280;20720;48.886;9.388;2023-05-20T09:19:23;98322.88;;;25.75;63.04
34482;BME280;20720;48.886;9.388;2023-05-20T09:21:51;98320.81;;;24.65;63.93
34482;BME280;20720;48.886;9.388;2023-05-20T09:24:22;98320.28;;;25.70;63.72
34482;BME280;20720;48.886;9.388;2023-05-20T09:26:48;98321.31;;;24.49;65.13
34482;BME280;20720;48.886;9.388;2023-05-20T09:29:14;98323.94;;;24.30;67.77
34482;BME280;20720;48.886;9.388;2023-05-20T09:31:39;98316.91;;;24.76;65.14
34482;BME280;20720;48.886;9.388;2023-05-20T09:34:05;98314.91;;;25.19;65.93
34482;BME280;20720;48.886;9.388;2023-05-20T09:36:32;98301.28;;;24.60;66.92
34482;BME280;20720;48.886;9.388;2023-05-20T09:39:00;98309.97;;;24.75;67.81
34482;BME280;20720;48.886;9.388;2023-05-20T09:41:54;98307.50;;;25.62;63.60
34482;BME280;20720;48.886;9.388;2023-05-20T09:44:21;98307.72;;;25.14;63.05
34482;BME280;20720;48.886;9.388;2023-05-20T09:46:47;98303.06;;;25.98;61.96
34482;BME280;20720;48.886;9.388;2023-05-20T09:49:14;98308.22;;;26.76;60.98
34482;BME280;20720;48.886;9.388;2023-05-20T09:51:40;98298.69;;;28.45;55.85
34482;BME280;20720;48.886;9.388;2023-05-20T09:54:06;98299.22;;;27.47;57.45
34482;BME280;20720;48.886;9.388;2023-05-20T09:56:33;98289.69;;;26.83;56.87
34482;BME280;20720;48.886;9.388;2023-05-20T09:58:59;98296.56;;;25.72;60.80
34482;BME280;20720;48.886;9.388;2023-05-20T10:01:25;98289.13;;;25.50;60.46
34482;BME280;20720;48.886;9.388;2023-05-20T10:03:51;98285.72;;;25.12;61.82
34482;BME280;20720;48.886;9.388;2023-05-20T10:06:29;98287.91;;;24.12;66.16
34482;BME280;20720;48.886;9.388;2023-05-20T10:09:22;98284.75;;;24.29;65.77
34482;BME280;20720;48.886;9.388;2023-05-20T10:20:12;98275.47;;;25.14;66.86
34482;BME280;20720;48.886;9.388;2023-05-20T10:22:37;98265.81;;;28.69;54.16
34482;BME280;20720;48.886;9.388;2023-05-20T10:25:05;98267.97;;;25.11;61.33
34482;BME280;20720;48.886;9.388;2023-05-20T10:27:47;98262.75;;;25.66;59.15
34482;BME280;20720;48.886;9.388;2023-05-20T10:30:19;98258.47;;;25.92;59.42
34482;BME280;20720;48.886;9.388;2023-05-20T10:32:48;98257.34;;;25.20;60.59
34482;BME280;20720;48.886;9.388;2023-05-20T10:35:21;98259.31;;;24.03;64.84
34482;BME280;20720;48.886;9.388;2023-05-20T10:37:46;98254.88;;;24.73;65.04
34482;BME280;20720;48.886;9.388;2023-05-20T10:40:13;98259.50;;;24.67;64.64
34482;BME280;20720;48.886;9.388;2023-05-20T10:42:39;98252.69;;;25.85;60.63
34482;BME280;20720;48.886;9.388;2023-05-20T10:45:06;98250.03;;;29.68;52.86
34482;BME280;20720;48.886;9.388;2023-05-20T10:47:31;98243.38;;;28.68;52.25
34482;BME280;20720;48.886;9.388;2023-05-20T10:49:57;98250.06;;;25.93;58.19
34482;BME280;20720;48.886;9.388;2023-05-20T10:52:23;98247.06;;;25.41;61.84
34482;BME280;20720;48.886;9.388;2023-05-20T10:54:56;98240.06;;;24.75;63.15
34482;BME280;20720;48.886;9.388;2023-05-20T10:57:21;98249.47;;;26.59;58.87
34482;BME280;20720;48.886;9.388;2023-05-20T10:59:48;98246.38;;;27.54;56.23
34482;BME280;20720;48.886;9.388;2023-05-20T11:02:17;98244.09;;;25.96;57.85
34482;BME280;20720;48.886;9.388;2023-05-20T11:04:43;98234.28;;;26.77;55.26
34482;BME280;20720;48.886;9.388;2023-05-20T11:07:08;98231.41;;;26.24;56.55
34482;BME280;20720;48.886;9.388;2023-05-20T11:09:34;98230.78;;;27.21;56.54
34482;BME280;20720;48.886;9.388;2023-05-20T11:12:00;98222.50;;;26.95;56.97
34482;BME280;20720;48.886;9.388;2023-05-20T11:14:27;98215.59;;;28.03;53.17
34482;BME280;20720;48.886;9.388;2023-05-20T11:16:57;98218.28;;;26.45;56.02
34482;BME280;20720;48.886;9.388;2023-05-20T11:19:23;98222.00;;;24.94;60.63
34482;BME280;20720;48.886;9.388;2023-05-20T11:21:49;98209.94;;;26.33;58.12
34482;BME280;20720;48.886;9.388;2023-05-20T11:24:23;98220.06;;;25.13;58.89
34482;BME280;20720;48.886;9.388;2023-05-20T11:26:49;98208.75;;;26.25;58.89
34482;BME280;20720;48.886;9.388;2023-05-20T11:29:15;98209.31;;;26.93;58.11
34482;BME280;20720;48.886;9.388;2023-05-20T11:31:41;98202.44;;;28.27;53.45
34482;BME280;20720;48.886;9.388;2023-05-20T11:34:07;98201.78;;;27.65;52.67
34482;BME280;20720;48.886;9.388;2023-05-20T11:36:32;98197.41;;;27.17;54.20
34482;BME280;20720;48.886;9.388;2023-05-20T11:38:58;98200.41;;;26.13;56.49
34482;BME280;20720;48.886;9.388;2023-05-20T11:41:26;98196.72;;;27.33;53.94
34482;BME280;20720;48.886;9.388;2023-05-20T11:43:58;98196.91;;;28.58;52.29
34482;BME280;20720;48.886;9.388;2023-05-20T11:46:24;98192.91;;;27.65;53.64
34482;BME280;20720;48.886;9.388;2023-05-20T11:48:56;98198.28;;;27.04;53.96
34482;BME280;20720;48.886;9.388;2023-05-20T11:51:23;98188.59;;;28.37;51.23
34482;BME280;20720;48.886;9.388;2023-05-20T11:53:49;98189.41;;;28.80;50.93
34482;BME280;20720;48.886;9.388;2023-05-20T11:56:14;98176.59;;;29.70;51.25
34482;BME280;20720;48.886;9.388;2023-05-20T11:58:42;98175.63;;;29.66;47.77
34482;BME280;20720;48.886;9.388;2023-05-20T12:01:08;98171.75;;;28.40;51.29
34482;BME280;20720;48.886;9.388;2023-05-20T12:03:33;98177.66;;;28.59;48.74
34482;BME280;20720;48.886;9.388;2023-05-20T12:06:00;98170.00;;;28.87;49.34
34482;BME280;20720;48.886;9.388;2023-05-20T12:08:26;98166.16;;;30.10;48.32
34482;BME280;20720;48.886;9.388;2023-05-20T12:10:51;98167.00;;;28.54;50.27
34482;BME280;20720;48.886;9.388;2023-05-20T12:13:16;98155.25;;;27.68;53.28
34482;BME280;20720;48.886;9.388;2023-05-20T12:15:43;98164.94;;;26.99;57.38
34482;BME280;20720;48.886;9.388;2023-05-20T12:18:08;98164.06;;;29.02;52.01
34482;BME280;20720;48.886;9.388;2023-05-20T12:20:34;98157.75;;;28.64;51.34
34482;BME280;20720;48.886;9.388;2023-05-20T12:23:00;98164.63;;;26.35;55.40
34482;BME280;20720;48.886;9.388;2023-05-20T12:25:25;98156.78;;;28.00;53.11
34482;BME280;20720;48.886;9.388;2023-05-20T12:27:51;98156.44;;;25.77;56.63
34482;BME280;20720;48.886;9.388;2023-05-20T12:30:21;98156.03;;;25.83;56.90
34482;BME280;20720;48.886;9.388;2023-05-20T12:32:48;98152.47;;;27.43;54.68
34482;BME280;20720;48.886;9.388;2023-05-20T12:35:14;98148.41;;;27.71;54.03
34482;BME280;20720;48.886;9.388;2023-05-20T12:37:41;98149.06;;;27.68;52.32
34482;BME280;20720;48.886;9.388;2023-05-20T12:40:10;98152.81;;;28.15;53.47
34482;BME280;20720;48.886;9.388;2023-05-20T12:42:37;98152.25;;;27.70;52.12
34482;BME280;20720;48.886;9.388;2023-05-20T12:45:03;98149.47;;;26.83;54.10
34482;BME280;20720;48.886;9.388;2023-05-20T12:47:30;98146.19;;;26.50;56.21
34482;BME280;20720;48.886;9.388;2023-05-20T12:49:55;98135.91;;;26.74;53.55
34482;BME280;20720;48.886;9.388;2023-05-20T12:52:20;98139.44;;;28.52;50.91
34482;BME280;20720;48.886;9.388;2023-05-20T12:54:45;98138.69;;;28.60;51.02
34482;BME280;20720;48.886;9.388;2023-05-20T12:57:11;98141.78;;;29.14;52.18